createdAt,value
2018-07-03T00:00:34.366Z,16.11
2018-07-03T00:02:01.874Z,16.09
2018-07-03T00:03:28.331Z,16.05
2018-07-03T00:04:55.851Z,15.96
2018-07-03T00:06:23.316Z,15.86
2018-07-03T00:07:51.898Z,15.77
2018-07-03T00:09:19.281Z,15.72
2018-07-03T00:10:46.721Z,15.71
2018-07-03T00:12:13.811Z,15.69
2018-07-03T00:13:41.224Z,15.68
2018-07-03T00:15:08.708Z,15.72
2018-07-03T00:16:34.858Z,15.75
2018-07-03T00:18:02.296Z,15.77
2018-07-03T00:19:30.834Z,15.79
2018-07-03T00:20:56.984Z,15.77
2018-07-03T00:22:24.549Z,15.75
2018-07-03T00:23:51.724Z,15.72
2018-07-03T00:25:19.377Z,15.67
2018-07-03T00:26:46.623Z,15.65
2018-07-03T00:28:14.033Z,15.66
2018-07-03T00:29:42.491Z,15.62
2018-07-03T00:31:09.751Z,15.59
2018-07-03T00:32:36.036Z,15.58
2018-07-03T00:34:04.619Z,15.57
2018-07-03T00:35:30.960Z,15.56
2018-07-03T00:36:58.334Z,15.52
2018-07-03T00:38:25.769Z,15.46
2018-07-03T00:39:53.072Z,15.44
2018-07-03T00:41:21.676Z,15.43
2018-07-03T00:42:48.081Z,15.41
2018-07-03T00:44:15.628Z,15.41
2018-07-03T00:45:44.130Z,15.41
2018-07-03T00:47:11.606Z,15.43
2018-07-03T00:48:39.059Z,15.48
2018-07-03T00:50:06.671Z,15.48
2018-07-03T00:51:33.002Z,15.52
2018-07-03T00:53:00.495Z,15.52
2018-07-03T00:54:28.029Z,15.52
2018-07-03T00:55:56.634Z,15.53
2018-07-03T00:57:24.146Z,15.53
2018-07-03T00:58:50.515Z,15.54
2018-07-03T01:00:19.004Z,15.52
2018-07-03T01:01:45.404Z,15.50
2018-07-03T01:03:13.114Z,15.51
2018-07-03T01:04:40.614Z,15.52
2018-07-03T01:06:07.998Z,15.50
2018-07-03T01:07:35.478Z,15.48
2018-07-03T01:09:03.966Z,15.45
2018-07-03T01:10:30.383Z,15.45
2018-07-03T01:11:57.646Z,15.45
2018-07-03T01:13:25.139Z,15.44
2018-07-03T01:14:53.607Z,15.46
2018-07-03T01:16:19.900Z,15.50
2018-07-03T01:17:48.308Z,15.51
2018-07-03T01:19:14.745Z,15.52
2018-07-03T01:20:42.088Z,15.52
2018-07-03T01:22:09.658Z,15.54
2018-07-03T01:23:37.214Z,15.53
2018-07-03T01:25:05.609Z,15.49
2018-07-03T01:26:31.960Z,15.46
2018-07-03T01:27:59.607Z,15.41
2018-07-03T01:29:26.871Z,15.37
2018-07-03T01:30:55.107Z,15.32
2018-07-03T01:32:22.345Z,15.29
2018-07-03T01:33:48.751Z,15.25
2018-07-03T01:35:15.928Z,15.27
2018-07-03T01:36:43.096Z,15.29
2018-07-03T01:38:11.352Z,15.30
2018-07-03T01:39:37.683Z,15.31
2018-07-03T01:41:06.162Z,15.30
2018-07-03T01:42:32.714Z,15.28
2018-07-03T01:44:00.219Z,15.27
2018-07-03T01:45:27.418Z,15.24
2018-07-03T01:46:54.768Z,15.21
2018-07-03T01:48:22.063Z,15.17
2018-07-03T01:49:49.483Z,15.15
2018-07-03T01:51:17.204Z,15.12
2018-07-03T01:52:44.663Z,15.08
2018-07-03T01:54:12.020Z,15.02
2018-07-03T01:55:40.325Z,14.97
2018-07-03T01:57:06.845Z,14.92
2018-07-03T01:58:34.386Z,14.88
2018-07-03T02:00:02.926Z,14.83
2018-07-03T02:01:30.307Z,14.77
2018-07-03T02:02:57.686Z,14.70
2018-07-03T02:04:24.042Z,14.63
2018-07-03T02:05:51.562Z,14.48
2018-07-03T02:07:18.805Z,14.43
2018-07-03T02:08:46.115Z,14.42
2018-07-03T02:10:13.408Z,14.41
2018-07-03T02:11:41.050Z,14.40
2018-07-03T02:13:08.512Z,14.37
2018-07-03T02:14:37.003Z,14.39
2018-07-03T02:16:03.397Z,14.35
2018-07-03T02:17:31.658Z,14.30
2018-07-03T02:18:59.013Z,14.27
2018-07-03T02:20:25.468Z,14.27
2018-07-03T02:21:52.909Z,14.27
2018-07-03T02:23:21.169Z,14.24
2018-07-03T02:24:47.664Z,14.22
2018-07-03T02:26:16.008Z,14.18
2018-07-03T02:27:42.378Z,14.13
2018-07-03T02:29:10.581Z,14.09
2018-07-03T02:30:37.963Z,14.07
2018-07-03T02:32:05.318Z,14.09
2018-07-03T02:33:31.685Z,14.11
2018-07-03T02:34:59.250Z,14.11
2018-07-03T02:36:27.807Z,14.09
2018-07-03T02:37:54.946Z,14.06
2018-07-03T02:39:22.455Z,14.07
2018-07-03T02:40:48.658Z,14.05
2018-07-03T02:42:15.922Z,14.01
2018-07-03T02:43:43.073Z,13.96
2018-07-03T02:45:10.567Z,13.92
2018-07-03T02:46:37.897Z,13.87
2018-07-03T02:48:06.628Z,13.85
2018-07-03T02:49:33.055Z,13.85
2018-07-03T02:51:00.414Z,13.87
2018-07-03T02:52:27.713Z,13.86
2018-07-03T02:53:56.225Z,13.88
2018-07-03T02:55:23.496Z,13.90
2018-07-03T02:56:50.796Z,13.90
2018-07-03T02:58:17.114Z,13.90
2018-07-03T02:59:44.382Z,13.88
2018-07-03T03:01:12.954Z,13.86
2018-07-03T03:02:40.233Z,13.85
2018-07-03T03:04:06.453Z,13.85
2018-07-03T03:05:34.834Z,13.84
2018-07-03T03:07:01.307Z,13.83
2018-07-03T03:08:30.014Z,13.82
2018-07-03T03:09:57.422Z,13.82
2018-07-03T03:11:23.700Z,13.80
2018-07-03T03:12:52.194Z,13.79
2018-07-03T03:14:19.583Z,13.80
2018-07-03T03:15:47.011Z,13.81
2018-07-03T03:17:13.292Z,13.82
2018-07-03T03:18:40.771Z,13.83
2018-07-03T03:20:08.245Z,13.85
2018-07-03T03:21:36.850Z,13.87
2018-07-03T03:23:03.357Z,13.92
2018-07-03T03:24:30.723Z,13.95
2018-07-03T03:25:58.035Z,13.96
2018-07-03T03:27:25.622Z,13.95
2018-07-03T03:28:53.078Z,13.93
2018-07-03T03:30:20.442Z,13.92
2018-07-03T03:31:48.879Z,13.81
2018-07-03T03:33:15.285Z,13.73
2018-07-03T03:34:43.773Z,13.73
2018-07-03T03:36:10.224Z,13.76
2018-07-03T03:37:37.437Z,13.78
2018-07-03T03:39:04.722Z,13.81
2018-07-03T03:40:32.241Z,13.86
2018-07-03T03:42:00.777Z,13.90
2018-07-03T03:43:27.290Z,13.91
2018-07-03T03:44:54.459Z,13.94
2018-07-03T03:46:21.745Z,13.99
2018-07-03T03:47:49.326Z,14.01
2018-07-03T03:49:17.730Z,14.04
2018-07-03T03:50:45.176Z,14.06
2018-07-03T03:52:11.535Z,14.07
2018-07-03T03:53:39.740Z,14.09
2018-07-03T03:55:07.215Z,14.16
2018-07-03T03:56:33.495Z,14.51
2018-07-03T03:58:00.723Z,15.16
2018-07-03T03:59:28.343Z,15.92
2018-07-03T04:00:55.717Z,16.56
2018-07-03T04:02:24.038Z,17.02
2018-07-03T04:03:50.333Z,17.29
2018-07-03T04:05:18.878Z,17.44
2018-07-03T04:06:45.134Z,17.56
2018-07-03T04:08:13.814Z,17.60
2018-07-03T04:09:40.306Z,17.57
2018-07-03T04:11:08.833Z,17.35
2018-07-03T04:12:36.319Z,17.19
2018-07-03T04:14:03.876Z,16.94
2018-07-03T04:15:31.186Z,16.77
2018-07-03T04:16:57.573Z,16.61
2018-07-03T04:18:25.857Z,16.52
2018-07-03T04:19:52.366Z,16.37
2018-07-03T04:21:20.774Z,16.12
2018-07-03T04:22:47.291Z,15.93
2018-07-03T04:24:14.482Z,15.82
2018-07-03T04:25:41.863Z,15.68
2018-07-03T04:27:10.347Z,15.62
2018-07-03T04:28:36.771Z,15.60
2018-07-03T04:30:04.025Z,15.62
2018-07-03T04:31:32.601Z,15.65
2018-07-03T04:33:00.211Z,15.67
2018-07-03T04:34:27.599Z,15.70
2018-07-03T04:35:55.101Z,15.74
2018-07-03T04:37:22.323Z,15.76
2018-07-03T04:38:48.739Z,15.75
2018-07-03T04:40:17.269Z,15.77
2018-07-03T04:41:43.697Z,15.79
2018-07-03T04:43:10.877Z,15.81
2018-07-03T04:44:38.205Z,15.84
2018-07-03T04:46:05.776Z,15.88
2018-07-03T04:47:33.217Z,15.92
2018-07-03T04:49:00.535Z,15.94
2018-07-03T04:50:27.714Z,15.92
2018-07-03T04:51:55.218Z,15.96
2018-07-03T04:53:22.662Z,16.00
2018-07-03T04:54:49.944Z,16.05
2018-07-03T04:56:17.330Z,16.08
2018-07-03T04:57:44.542Z,16.10
2018-07-03T04:59:11.901Z,16.16
2018-07-03T05:00:40.337Z,16.24
2018-07-03T05:02:07.695Z,16.29
2018-07-03T05:03:34.939Z,16.35
2018-07-03T05:05:02.141Z,16.44
2018-07-03T05:06:28.376Z,16.52
2018-07-03T05:07:56.763Z,16.61
2018-07-03T05:09:23.150Z,16.69
2018-07-03T05:10:50.413Z,16.74
2018-07-03T05:12:18.866Z,16.80
2018-07-03T05:13:46.251Z,16.86
2018-07-03T05:15:13.340Z,16.92
2018-07-03T05:16:39.712Z,16.99
2018-07-03T05:18:08.234Z,17.08
2018-07-03T05:19:35.383Z,17.15
2018-07-03T05:21:01.915Z,17.23
2018-07-03T05:22:30.312Z,17.32
2018-07-03T05:23:56.699Z,17.40
2018-07-03T05:25:25.085Z,17.48
2018-07-03T05:26:51.427Z,17.56
2018-07-03T05:28:19.639Z,17.65
2018-07-03T05:29:47.100Z,17.74
2018-07-03T05:31:13.376Z,17.84
2018-07-03T05:32:40.754Z,17.93
2018-07-03T05:34:08.239Z,18.03
2018-07-03T05:35:36.761Z,18.14
2018-07-03T05:37:03.318Z,18.26
2018-07-03T05:38:31.507Z,18.41
2018-07-03T05:39:58.809Z,18.60
2018-07-03T05:41:26.049Z,18.88
2018-07-03T05:42:53.813Z,19.26
2018-07-03T05:44:21.597Z,19.85
2018-07-03T05:45:48.198Z,20.54
2018-07-03T05:47:15.695Z,21.25
2018-07-03T05:48:43.224Z,21.96
2018-07-03T05:50:10.863Z,22.57
2018-07-03T05:51:39.570Z,23.01
2018-07-03T05:53:06.029Z,23.46
2018-07-03T05:54:34.778Z,23.81
2018-07-03T05:56:02.659Z,24.13
2018-07-03T05:57:30.095Z,24.38
2018-07-03T05:58:57.705Z,24.48
2018-07-03T06:00:25.358Z,24.49
2018-07-03T06:01:51.918Z,24.66
2018-07-03T06:03:19.692Z,24.72
2018-07-03T06:04:47.250Z,24.67
2018-07-03T06:06:14.638Z,24.63
2018-07-03T06:07:42.363Z,24.59
2018-07-03T06:09:09.952Z,24.41
2018-07-03T06:10:38.388Z,24.41
2018-07-03T06:12:05.804Z,24.42
2018-07-03T06:13:32.140Z,24.38
2018-07-03T06:14:59.668Z,24.23
2018-07-03T06:16:27.179Z,24.10
2018-07-03T06:17:54.721Z,24.03
2018-07-03T06:19:22.099Z,23.87
2018-07-03T06:20:50.512Z,23.83
2018-07-03T06:22:17.106Z,23.79
2018-07-03T06:23:45.722Z,23.69
2018-07-03T06:25:12.356Z,23.64
2018-07-03T06:26:40.979Z,23.68
2018-07-03T06:28:07.594Z,23.74
2018-07-03T06:29:36.059Z,23.80
2018-07-03T06:31:03.707Z,23.90
2018-07-03T06:32:30.409Z,23.98
2018-07-03T06:33:57.955Z,24.06
2018-07-03T06:35:25.271Z,24.15
2018-07-03T06:36:53.160Z,24.26
2018-07-03T06:38:21.827Z,24.35
2018-07-03T06:39:48.582Z,24.47
2018-07-03T06:41:16.305Z,24.60
2018-07-03T06:42:43.897Z,24.79
2018-07-03T06:44:11.383Z,24.97
2018-07-03T06:45:40.016Z,25.27
2018-07-03T06:47:06.816Z,25.60
2018-07-03T06:48:34.599Z,26.06
2018-07-03T06:50:03.227Z,26.56
2018-07-03T06:51:29.944Z,27.14
2018-07-03T06:52:57.608Z,27.68
2018-07-03T06:54:26.554Z,28.19
2018-07-03T06:55:54.236Z,28.55
2018-07-03T06:57:21.229Z,28.78
2018-07-03T06:58:48.722Z,28.87
2018-07-03T07:00:17.421Z,28.87
2018-07-03T07:01:43.774Z,28.70
2018-07-03T07:03:11.516Z,28.33
2018-07-03T07:04:39.108Z,28.08
2018-07-03T07:06:06.749Z,27.73
2018-07-03T07:07:34.344Z,27.40
2018-07-03T07:09:02.280Z,27.07
2018-07-03T07:10:29.892Z,26.74
2018-07-03T07:11:57.435Z,26.48
2018-07-03T07:13:25.028Z,26.23
2018-07-03T07:14:53.790Z,26.09
2018-07-03T07:16:20.461Z,25.98
2018-07-03T07:17:47.777Z,25.91
2018-07-03T07:19:16.465Z,25.93
2018-07-03T07:20:43.150Z,25.98
2018-07-03T07:22:10.701Z,26.00
2018-07-03T07:23:38.360Z,26.11
2018-07-03T07:25:06.956Z,26.22
2018-07-03T07:26:33.386Z,26.33
2018-07-03T07:28:01.227Z,26.44
2018-07-03T07:29:28.892Z,26.53
2018-07-03T07:30:57.360Z,26.58
2018-07-03T07:32:23.867Z,26.52
2018-07-03T07:33:52.232Z,26.47
2018-07-03T07:35:19.893Z,26.39
2018-07-03T07:36:46.473Z,26.26
2018-07-03T07:38:15.097Z,26.14
2018-07-03T07:39:42.647Z,26.02
2018-07-03T07:41:10.201Z,25.92
2018-07-03T07:42:36.814Z,25.81
2018-07-03T07:44:04.402Z,25.72
2018-07-03T07:45:32.049Z,25.64
2018-07-03T07:47:00.555Z,25.55
2018-07-03T07:48:27.306Z,25.46
2018-07-03T07:49:55.745Z,25.39
2018-07-03T07:51:22.413Z,25.31
2018-07-03T07:52:50.004Z,25.25
2018-07-03T07:54:18.428Z,25.20
2018-07-03T07:55:44.954Z,25.14
2018-07-03T07:57:12.461Z,25.09
2018-07-03T07:58:40.187Z,25.06
2018-07-03T08:00:08.773Z,25.03
2018-07-03T08:01:35.255Z,25.01
2018-07-03T08:03:02.924Z,25.01
2018-07-03T08:04:30.487Z,25.00
2018-07-03T08:05:58.096Z,25.00
2018-07-03T08:07:25.634Z,24.99
2018-07-03T08:08:53.314Z,25.00
2018-07-03T08:10:22.011Z,25.01
2018-07-03T08:11:48.440Z,25.02
2018-07-03T08:13:16.001Z,25.02
2018-07-03T08:14:43.419Z,25.03
2018-07-03T08:16:11.027Z,25.01
2018-07-03T08:17:38.749Z,24.96
2018-07-03T08:19:07.451Z,24.93
2018-07-03T08:20:34.970Z,24.92
2018-07-03T08:22:02.663Z,24.91
2018-07-03T08:23:29.372Z,24.93
2018-07-03T08:24:56.899Z,24.99
2018-07-03T08:26:25.493Z,25.05
2018-07-03T08:27:52.157Z,25.08
2018-07-03T08:29:19.533Z,25.11
2018-07-03T08:30:47.028Z,25.13
2018-07-03T08:32:14.683Z,25.12
2018-07-03T08:33:43.218Z,25.14
2018-07-03T08:35:09.851Z,25.10
2018-07-03T08:36:37.152Z,25.07
2018-07-03T08:38:04.834Z,25.01
2018-07-03T08:39:33.607Z,24.95
2018-07-03T08:40:59.905Z,24.96
2018-07-03T08:42:27.272Z,25.00
2018-07-03T08:43:55.112Z,25.06
2018-07-03T08:45:22.463Z,25.12
2018-07-03T08:46:49.922Z,25.21
2018-07-03T08:48:17.699Z,25.32
2018-07-03T08:49:46.082Z,25.39
2018-07-03T08:51:12.911Z,25.47
2018-07-03T08:52:40.320Z,25.57
2018-07-03T08:54:07.965Z,25.64
2018-07-03T08:55:35.621Z,25.68
2018-07-03T08:57:03.124Z,25.72
2018-07-03T08:58:30.511Z,25.79
2018-07-03T08:59:58.103Z,25.87
2018-07-03T09:01:25.825Z,25.91
2018-07-03T09:02:54.472Z,25.98
2018-07-03T09:04:21.737Z,26.01
2018-07-03T09:05:48.518Z,26.05
2018-07-03T09:07:16.170Z,26.11
2018-07-03T09:08:44.650Z,26.14
2018-07-03T09:10:11.209Z,26.15
2018-07-03T09:11:38.856Z,26.16
2018-07-03T09:13:06.494Z,26.13
2018-07-03T09:14:34.367Z,26.16
2018-07-03T09:16:01.976Z,26.19
2018-07-03T09:17:29.401Z,26.20
2018-07-03T09:18:56.938Z,26.16
2018-07-03T09:20:24.651Z,26.19
2018-07-03T09:21:52.256Z,26.26
2018-07-03T09:23:19.913Z,26.24
2018-07-03T09:24:47.571Z,26.25
2018-07-03T09:26:14.957Z,26.19
2018-07-03T09:27:42.634Z,26.05
2018-07-03T09:29:11.140Z,25.97
2018-07-03T09:30:37.857Z,25.88
2018-07-03T09:32:05.521Z,25.88
2018-07-03T09:33:33.249Z,25.91
2018-07-03T09:35:00.862Z,25.94
2018-07-03T09:36:29.393Z,26.04
2018-07-03T09:37:55.937Z,26.17
2018-07-03T09:39:24.609Z,26.27
2018-07-03T09:40:51.070Z,26.39
2018-07-03T09:42:18.725Z,26.41
2018-07-03T09:43:47.392Z,26.42
2018-07-03T09:45:13.838Z,26.42
2018-07-03T09:46:42.276Z,26.33
2018-07-03T09:48:08.839Z,26.20
2018-07-03T09:49:37.570Z,26.07
2018-07-03T09:51:05.113Z,26.01
2018-07-03T09:52:31.707Z,26.05
2018-07-03T09:53:59.355Z,26.08
2018-07-03T09:55:26.981Z,25.96
2018-07-03T09:56:55.557Z,26.04
2018-07-03T09:58:22.034Z,26.19
2018-07-03T09:59:50.780Z,26.36
2018-07-03T10:01:18.331Z,26.54
2018-07-03T10:02:44.960Z,26.71
2018-07-03T10:04:13.507Z,26.84
2018-07-03T10:05:40.009Z,26.88
2018-07-03T10:07:07.561Z,26.92
2018-07-03T10:08:34.995Z,26.98
2018-07-03T10:10:02.614Z,27.02
2018-07-03T10:11:30.355Z,27.11
2018-07-03T10:12:59.029Z,27.20
2018-07-03T10:14:26.747Z,27.30
2018-07-03T10:15:54.326Z,27.27
2018-07-03T10:17:20.758Z,27.18
2018-07-03T10:18:48.207Z,27.07
2018-07-03T10:20:15.850Z,26.95
2018-07-03T10:21:43.590Z,26.80
2018-07-03T10:23:11.238Z,26.64
2018-07-03T10:24:39.770Z,26.53
2018-07-03T10:26:06.084Z,26.44
2018-07-03T10:27:33.620Z,26.42
2018-07-03T10:29:02.262Z,26.49
2018-07-03T10:30:29.030Z,26.60
2018-07-03T10:31:56.718Z,26.74
2018-07-03T10:33:25.410Z,26.96
2018-07-03T10:34:52.863Z,27.03
2018-07-03T10:36:19.528Z,27.00
2018-07-03T10:37:47.128Z,26.93
2018-07-03T10:39:14.604Z,26.85
2018-07-03T10:40:43.276Z,26.76
2018-07-03T10:42:10.028Z,26.67
2018-07-03T10:43:37.408Z,26.69
2018-07-03T10:45:04.890Z,26.79
2018-07-03T10:46:32.477Z,26.87
2018-07-03T10:47:59.872Z,26.91
2018-07-03T10:49:27.623Z,26.99
2018-07-03T10:50:55.347Z,27.08
2018-07-03T10:52:22.979Z,27.06
2018-07-03T10:53:50.617Z,27.02
2018-07-03T10:55:18.149Z,27.06
2018-07-03T10:56:45.832Z,27.15
2018-07-03T10:58:13.497Z,27.27
2018-07-03T10:59:41.200Z,27.44
2018-07-03T11:01:08.741Z,27.62
2018-07-03T11:02:37.415Z,27.61
2018-07-03T11:04:04.998Z,27.52
2018-07-03T11:05:31.613Z,27.48
2018-07-03T11:06:59.340Z,27.49
2018-07-03T11:08:27.915Z,27.63
2018-07-03T11:09:54.694Z,27.57
2018-07-03T11:11:23.288Z,27.45
2018-07-03T11:12:49.927Z,27.30
2018-07-03T11:14:17.591Z,27.39
2018-07-03T11:15:45.090Z,27.46
2018-07-03T11:17:12.708Z,27.72
2018-07-03T11:18:40.191Z,28.00
2018-07-03T11:20:08.999Z,28.18
2018-07-03T11:21:35.642Z,28.14
2018-07-03T11:23:04.193Z,28.04
2018-07-03T11:24:30.877Z,27.81
2018-07-03T11:25:58.415Z,27.66
2018-07-03T11:27:26.101Z,27.64
2018-07-03T11:28:54.860Z,27.81
2018-07-03T11:30:21.308Z,27.84
2018-07-03T11:31:48.956Z,27.79
2018-07-03T11:33:16.540Z,27.63
2018-07-03T11:34:45.021Z,27.69
2018-07-03T11:36:11.713Z,28.01
2018-07-03T11:37:39.399Z,28.35
2018-07-03T11:39:07.161Z,28.75
2018-07-03T11:40:34.753Z,29.09
2018-07-03T11:42:02.165Z,29.44
2018-07-03T11:43:30.834Z,29.78
2018-07-03T11:44:57.589Z,30.07
2018-07-03T11:46:25.222Z,30.33
2018-07-03T11:47:52.511Z,30.45
2018-07-03T11:49:20.283Z,30.47
2018-07-03T11:50:48.954Z,30.62
2018-07-03T11:52:15.263Z,30.63
2018-07-03T11:53:42.981Z,30.82
2018-07-03T11:55:11.569Z,30.97
2018-07-03T11:56:38.192Z,30.93
2018-07-03T11:58:06.748Z,30.68
2018-07-03T11:59:33.545Z,30.64
2018-07-03T12:01:01.252Z,30.73
2018-07-03T12:02:28.929Z,30.89
2018-07-03T12:03:56.436Z,31.19
2018-07-03T12:05:24.047Z,31.33
2018-07-03T12:06:52.802Z,31.33
2018-07-03T12:08:20.289Z,31.46
2018-07-03T12:09:46.977Z,31.59
2018-07-03T12:11:14.710Z,31.54
2018-07-03T12:12:42.137Z,31.64
2018-07-03T12:14:09.903Z,31.70
2018-07-03T12:15:37.568Z,31.68
2018-07-03T12:17:05.261Z,31.57
2018-07-03T12:18:33.936Z,31.55
2018-07-03T12:20:00.617Z,31.45
2018-07-03T12:21:28.405Z,31.55
2018-07-03T12:22:56.087Z,31.63
2018-07-03T12:24:23.861Z,31.75
2018-07-03T12:25:52.564Z,31.93
2018-07-03T12:27:19.166Z,32.12
2018-07-03T12:28:47.699Z,32.24
2018-07-03T12:30:14.228Z,32.31
2018-07-03T12:31:42.915Z,32.37
2018-07-03T12:33:09.698Z,32.43
2018-07-03T12:34:37.344Z,32.34
2018-07-03T12:36:04.830Z,32.45
2018-07-03T12:37:32.317Z,32.44
2018-07-03T12:38:59.966Z,32.20
2018-07-03T12:40:27.582Z,31.65
2018-07-03T12:41:55.318Z,31.30
2018-07-03T12:43:23.087Z,31.18
2018-07-03T12:44:50.854Z,30.78
2018-07-03T12:46:18.412Z,30.42
2018-07-03T12:47:45.931Z,30.42
2018-07-03T12:49:13.479Z,30.68
2018-07-03T12:50:41.205Z,30.72
2018-07-03T12:52:09.828Z,30.85
2018-07-03T12:53:36.354Z,30.99
2018-07-03T12:55:04.112Z,31.05
2018-07-03T12:56:31.520Z,31.03
2018-07-03T12:57:59.204Z,30.81
2018-07-03T12:59:26.958Z,30.73
2018-07-03T13:00:54.743Z,30.68
2018-07-03T13:02:23.498Z,30.54
2018-07-03T13:03:50.026Z,30.42
2018-07-03T13:05:17.532Z,30.41
2018-07-03T13:06:45.126Z,30.39
2018-07-03T13:08:12.992Z,30.15
2018-07-03T13:09:40.638Z,30.03
2018-07-03T13:11:08.245Z,29.80
2018-07-03T13:12:35.957Z,29.63
2018-07-03T13:14:04.681Z,29.33
2018-07-03T13:15:32.280Z,29.20
2018-07-03T13:17:00.048Z,29.07
2018-07-03T13:18:26.657Z,29.00
2018-07-03T13:19:54.424Z,28.95
2018-07-03T13:21:22.135Z,28.86
2018-07-03T13:22:49.514Z,28.61
2018-07-03T13:24:17.137Z,28.43
2018-07-03T13:25:44.825Z,28.25
2018-07-03T13:27:12.519Z,28.08
2018-07-03T13:28:40.213Z,27.99
2018-07-03T13:30:07.928Z,27.97
2018-07-03T13:31:36.571Z,28.02
2018-07-03T13:33:04.170Z,27.95
2018-07-03T13:34:30.778Z,27.89
2018-07-03T13:35:58.374Z,27.88
2018-07-03T13:37:25.930Z,27.92
2018-07-03T13:38:53.630Z,27.91
2018-07-03T13:40:21.280Z,27.93
2018-07-03T13:41:48.999Z,27.86
2018-07-03T13:43:16.489Z,27.85
2018-07-03T13:44:44.110Z,27.78
2018-07-03T13:46:12.574Z,27.74
2018-07-03T13:47:40.258Z,27.65
2018-07-03T13:49:06.651Z,27.56
2018-07-03T13:50:34.312Z,27.50
2018-07-03T13:52:02.076Z,27.38
2018-07-03T13:53:30.732Z,27.39
2018-07-03T13:54:57.358Z,27.42
2018-07-03T13:56:24.872Z,27.39
2018-07-03T13:57:53.735Z,27.36
2018-07-03T13:59:20.224Z,27.33
2018-07-03T14:00:47.840Z,27.32
2018-07-03T14:02:15.588Z,27.18
2018-07-03T14:03:43.247Z,27.16
2018-07-03T14:05:10.753Z,27.12
2018-07-03T14:06:39.318Z,27.11
2018-07-03T14:08:06.101Z,27.04
2018-07-03T14:09:33.853Z,26.93
2018-07-03T14:11:01.515Z,26.85
2018-07-03T14:12:30.183Z,26.83
2018-07-03T14:13:56.791Z,26.70
2018-07-03T14:15:24.572Z,26.68
2018-07-03T14:16:52.146Z,26.63
2018-07-03T14:18:19.702Z,26.62
2018-07-03T14:19:47.403Z,26.52
2018-07-03T14:21:14.793Z,26.54
2018-07-03T14:22:42.452Z,26.50
2018-07-03T14:24:10.916Z,26.50
2018-07-03T14:25:37.589Z,26.49
2018-07-03T14:27:06.431Z,26.44
2018-07-03T14:28:33.913Z,26.38
2018-07-03T14:30:00.492Z,26.37
2018-07-03T14:31:28.742Z,26.40
2018-07-03T14:32:55.734Z,26.39
2018-07-03T14:34:23.197Z,26.38
2018-07-03T14:35:50.909Z,26.38
2018-07-03T14:37:19.453Z,26.37
2018-07-03T14:38:46.983Z,26.31
2018-07-03T14:40:14.521Z,26.20
2018-07-03T14:41:42.085Z,26.10
2018-07-03T14:43:08.652Z,26.05
2018-07-03T14:44:36.294Z,26.05
2018-07-03T14:46:03.790Z,26.08
2018-07-03T14:47:31.477Z,26.08
2018-07-03T14:48:58.946Z,26.10
2018-07-03T14:50:26.600Z,26.07
2018-07-03T14:51:54.346Z,25.94
2018-07-03T14:53:21.883Z,25.87
2018-07-03T14:54:49.527Z,25.84
2018-07-03T14:56:17.181Z,25.81
2018-07-03T14:57:44.717Z,25.78
2018-07-03T14:59:12.464Z,25.83
2018-07-03T15:00:41.093Z,25.87
2018-07-03T15:02:08.771Z,25.91
2018-07-03T15:03:35.108Z,25.91
2018-07-03T15:05:02.764Z,25.95
2018-07-03T15:06:30.412Z,25.95
2018-07-03T15:07:58.062Z,25.95
2018-07-03T15:09:26.480Z,25.94
2018-07-03T15:10:53.159Z,25.95
2018-07-03T15:12:20.641Z,25.94
2018-07-03T15:13:48.199Z,25.90
2018-07-03T15:15:15.797Z,25.80
2018-07-03T15:16:43.237Z,25.76
2018-07-03T15:18:10.943Z,25.70
2018-07-03T15:19:39.530Z,25.66
2018-07-03T15:21:06.273Z,25.63
2018-07-03T15:22:33.756Z,25.59
2018-07-03T15:24:01.271Z,25.60
2018-07-03T15:25:28.865Z,25.57
2018-07-03T15:26:56.323Z,25.57
2018-07-03T15:28:23.958Z,25.53
2018-07-03T15:29:52.623Z,25.50
2018-07-03T15:31:20.173Z,25.52
2018-07-03T15:32:47.739Z,25.56
2018-07-03T15:34:14.275Z,25.57
2018-07-03T15:35:42.909Z,25.60
2018-07-03T15:37:09.434Z,25.63
2018-07-03T15:38:36.854Z,25.61
2018-07-03T15:40:04.316Z,25.57
2018-07-03T15:41:31.966Z,25.58
2018-07-03T15:42:59.575Z,25.54
2018-07-03T15:44:27.229Z,25.51
2018-07-03T15:45:55.885Z,25.44
2018-07-03T15:47:22.451Z,25.44
2018-07-03T15:48:49.974Z,25.47
2018-07-03T15:50:18.694Z,25.46
2018-07-03T15:51:45.121Z,25.42
2018-07-03T15:53:13.604Z,25.43
2018-07-03T15:54:40.174Z,25.45
2018-07-03T15:56:07.838Z,25.44
2018-07-03T15:57:36.247Z,25.38
2018-07-03T15:59:02.710Z,25.25
2018-07-03T16:00:31.521Z,25.15
2018-07-03T16:01:57.899Z,25.14
2018-07-03T16:03:25.643Z,25.14
2018-07-03T16:04:54.217Z,25.10
2018-07-03T16:06:20.803Z,25.03
2018-07-03T16:07:48.294Z,25.00
2018-07-03T16:09:16.641Z,24.98
2018-07-03T16:10:43.235Z,24.99
2018-07-03T16:12:10.708Z,24.96
2018-07-03T16:13:39.368Z,24.91
2018-07-03T16:15:07.049Z,24.87
2018-07-03T16:16:34.679Z,24.86
2018-07-03T16:18:01.211Z,24.88
2018-07-03T16:19:28.970Z,24.86
2018-07-03T16:20:57.546Z,24.91
2018-07-03T16:22:24.064Z,24.96
2018-07-03T16:23:51.724Z,25.02
2018-07-03T16:25:19.439Z,25.06
2018-07-03T16:26:46.800Z,25.06
2018-07-03T16:28:14.252Z,25.02
2018-07-03T16:29:42.793Z,24.92
2018-07-03T16:31:09.364Z,24.89
2018-07-03T16:32:37.113Z,24.91
2018-07-03T16:34:04.619Z,24.89
2018-07-03T16:35:32.349Z,24.90
2018-07-03T16:37:00.078Z,24.94
2018-07-03T16:38:27.560Z,24.99
2018-07-03T16:39:55.132Z,24.96
2018-07-03T16:41:22.733Z,24.94
2018-07-03T16:42:50.260Z,24.94
2018-07-03T16:44:17.724Z,24.92
2018-07-03T16:45:45.197Z,24.94
2018-07-03T16:47:12.762Z,24.94
2018-07-03T16:48:39.805Z,24.88
2018-07-03T16:50:06.312Z,24.81
2018-07-03T16:51:35.629Z,24.76
2018-07-03T16:53:03.291Z,24.75
2018-07-03T16:54:30.889Z,24.69
2018-07-03T16:55:57.407Z,24.61
2018-07-03T16:57:24.962Z,24.59
2018-07-03T16:58:53.680Z,24.55
2018-07-03T17:00:20.132Z,24.55
2018-07-03T17:01:48.663Z,24.55
2018-07-03T17:03:15.116Z,24.58
2018-07-03T17:04:42.736Z,24.58
2018-07-03T17:06:10.284Z,24.58
2018-07-03T17:07:37.933Z,24.61
2018-07-03T17:09:06.485Z,24.62
2018-07-03T17:10:33.002Z,24.57
2018-07-03T17:12:00.549Z,24.54
2018-07-03T17:13:29.253Z,24.53
2018-07-03T17:14:56.780Z,24.51
2018-07-03T17:16:24.412Z,24.52
2018-07-03T17:17:51.928Z,24.54
2018-07-03T17:19:18.464Z,24.50
2018-07-03T17:20:45.715Z,24.46
2018-07-03T17:22:14.427Z,24.38
2018-07-03T17:23:40.886Z,24.31
2018-07-03T17:25:09.380Z,24.25
2018-07-03T17:26:36.412Z,24.20
2018-07-03T17:28:03.964Z,24.18
2018-07-03T17:29:31.406Z,24.17
2018-07-03T17:30:59.194Z,24.12
2018-07-03T17:32:26.558Z,24.08
2018-07-03T17:33:54.180Z,24.03
2018-07-03T17:35:21.830Z,24.02
2018-07-03T17:36:49.333Z,24.01
2018-07-03T17:38:17.900Z,24.00
2018-07-03T17:39:45.382Z,23.97
2018-07-03T17:41:11.958Z,23.97
2018-07-03T17:42:39.534Z,23.94
2018-07-03T17:44:08.089Z,23.89
2018-07-03T17:45:34.723Z,23.86
2018-07-03T17:47:03.276Z,23.78
2018-07-03T17:48:30.767Z,23.78
2018-07-03T17:49:58.442Z,23.76
2018-07-03T17:51:24.918Z,23.73
2018-07-03T17:52:52.409Z,23.69
2018-07-03T17:54:20.125Z,23.63
2018-07-03T17:55:47.638Z,23.60
2018-07-03T17:57:15.047Z,23.57
2018-07-03T17:58:43.417Z,23.55
2018-07-03T18:00:09.893Z,23.52
2018-07-03T18:01:37.673Z,23.48
2018-07-03T18:03:05.120Z,23.45
2018-07-03T18:04:33.791Z,23.42
2018-07-03T18:06:00.574Z,23.40
2018-07-03T18:07:28.121Z,23.37
2018-07-03T18:08:56.483Z,23.33
2018-07-03T18:10:24.168Z,23.29
2018-07-03T18:11:50.478Z,23.26
2018-07-03T18:13:19.144Z,23.24
2018-07-03T18:14:45.631Z,23.24
2018-07-03T18:16:14.373Z,23.27
2018-07-03T18:17:40.788Z,23.25
2018-07-03T18:19:09.558Z,23.24
2018-07-03T18:20:36.176Z,23.23
2018-07-03T18:22:03.719Z,23.22
2018-07-03T18:23:32.169Z,23.17
2018-07-03T18:24:58.512Z,23.15
2018-07-03T18:26:26.135Z,23.14
2018-07-03T18:27:53.801Z,23.13
2018-07-03T18:29:21.454Z,23.12
2018-07-03T18:30:49.015Z,23.09
2018-07-03T18:32:17.423Z,23.10
2018-07-03T18:33:45.039Z,23.11
2018-07-03T18:35:12.630Z,23.13
2018-07-03T18:36:39.014Z,23.14
2018-07-03T18:38:06.736Z,23.15
2018-07-03T18:39:34.222Z,23.13
2018-07-03T18:41:02.678Z,23.12
2018-07-03T18:42:29.096Z,23.07
2018-07-03T18:43:57.439Z,23.01
2018-07-03T18:45:25.130Z,22.97
2018-07-03T18:46:51.690Z,22.93